sensor_id;sensor_type;location;lat;lon;timestamp;P1;durP1;ratioP1;P2;durP2;ratioP2
15183;SDS011;7693;49.266;7.104;2023-04-28T00:01:30;5.63;;;5.13;;
15183;SDS011;7693;49.266;7.104;2023-04-28T00:03:56;5.00;;;4.60;;
15183;SDS011;7693;49.266;7.104;2023-04-28T00:06:22;5.57;;;4.00;;
15183;SDS011;7693;49.266;7.104;2023-04-28T00:08:48;4.00;;;3.80;;
15183;SDS011;7693;49.266;7.104;2023-04-28T00:11:13;6.63;;;4.87;;
15183;SDS011;7693;49.266;7.104;2023-04-28T00:13:39;21.97;;;16.73;;
15183;SDS011;7693;49.266;7.104;2023-04-28T00:16:04;6.63;;;6.07;;
15183;SDS011;7693;49.266;7.104;2023-04-28T00:18:30;5.30;;;4.93;;
15183;SDS011;7693;49.266;7.104;2023-04-28T00:20:59;5.27;;;4.73;;
15183;SDS011;7693;49.266;7.104;2023-04-28T00:23:25;5.00;;;4.70;;
15183;SDS011;7693;49.266;7.104;2023-04-28T00:25:51;4.10;;;3.90;;
15183;SDS011;7693;49.266;7.104;2023-04-28T00:28:18;4.03;;;3.70;;
15183;SDS011;7693;49.266;7.104;2023-04-28T00:30:43;4.07;;;3.77;;
15183;SDS011;7693;49.266;7.104;2023-04-28T00:33:09;4.00;;;3.80;;
15183;SDS011;7693;49.266;7.104;2023-04-28T00:35:34;6.00;;;5.50;;
15183;SDS011;7693;49.266;7.104;2023-04-28T00:38:00;5.23;;;4.73;;
15183;SDS011;7693;49.266;7.104;2023-04-28T00:40:32;4.50;;;4.10;;
15183;SDS011;7693;49.266;7.104;2023-04-28T00:42:58;4.10;;;3.83;;
15183;SDS011;7693;49.266;7.104;2023-04-28T00:45:24;4.87;;;4.37;;
15183;SDS011;7693;49.266;7.104;2023-04-28T00:47:49;4.70;;;4.40;;
15183;SDS011;7693;49.266;7.104;2023-04-28T00:50:15;4.43;;;4.13;;
15183;SDS011;7693;49.266;7.104;2023-04-28T00:52:41;4.17;;;3.90;;
15183;SDS011;7693;49.266;7.104;2023-04-28T00:55:07;5.03;;;4.57;;
15183;SDS011;7693;49.266;7.104;2023-04-28T00:57:34;5.33;;;4.83;;
15183;SDS011;7693;49.266;7.104;2023-04-28T01:00:00;5.23;;;4.80;;
15183;SDS011;7693;49.266;7.104;2023-04-28T01:02:30;5.73;;;4.60;;
15183;SDS011;7693;49.266;7.104;2023-04-28T01:04:58;6.87;;;5.20;;
15183;SDS011;7693;49.266;7.104;2023-04-28T01:07:25;5.53;;;4.53;;
15183;SDS011;7693;49.266;7.104;2023-04-28T01:09:51;6.50;;;5.03;;
15183;SDS011;7693;49.266;7.104;2023-04-28T01:12:16;5.30;;;4.97;;
15183;SDS011;7693;49.266;7.104;2023-04-28T01:14:42;5.30;;;4.90;;
15183;SDS011;7693;49.266;7.104;2023-04-28T01:17:08;5.50;;;5.10;;
15183;SDS011;7693;49.266;7.104;2023-04-28T01:19:34;5.23;;;4.83;;
15183;SDS011;7693;49.266;7.104;2023-04-28T01:22:00;5.40;;;4.93;;
15183;SDS011;7693;49.266;7.104;2023-04-28T01:24:25;8.37;;;5.00;;
15183;SDS011;7693;49.266;7.104;2023-04-28T01:26:51;5.27;;;4.73;;
15183;SDS011;7693;49.266;7.104;2023-04-28T01:29:16;5.60;;;5.17;;
15183;SDS011;7693;49.266;7.104;2023-04-28T01:31:42;7.53;;;5.50;;
15183;SDS011;7693;49.266;7.104;2023-04-28T01:34:08;6.20;;;4.80;;
15183;SDS011;7693;49.266;7.104;2023-04-28T01:36:33;7.70;;;5.50;;
15183;SDS011;7693;49.266;7.104;2023-04-28T01:38:59;8.57;;;6.97;;
15183;SDS011;7693;49.266;7.104;2023-04-28T01:41:24;6.37;;;5.87;;
15183;SDS011;7693;49.266;7.104;2023-04-28T01:43:50;5.33;;;4.93;;
15183;SDS011;7693;49.266;7.104;2023-04-28T01:46:16;5.70;;;5.10;;
15183;SDS011;7693;49.266;7.104;2023-04-28T01:48:41;5.80;;;5.30;;
15183;SDS011;7693;49.266;7.104;2023-04-28T01:51:07;5.70;;;5.27;;
15183;SDS011;7693;49.266;7.104;2023-04-28T01:53:32;6.00;;;5.50;;
15183;SDS011;7693;49.266;7.104;2023-04-28T01:55:58;5.77;;;5.27;;
15183;SDS011;7693;49.266;7.104;2023-04-28T01:58:24;6.23;;;5.37;;
15183;SDS011;7693;49.266;7.104;2023-04-28T02:00:49;5.60;;;5.20;;
15183;SDS011;7693;49.266;7.104;2023-04-28T02:03:15;5.77;;;5.27;;
15183;SDS011;7693;49.266;7.104;2023-04-28T02:05:40;5.47;;;5.00;;
15183;SDS011;7693;49.266;7.104;2023-04-28T02:08:06;6.13;;;5.63;;
15183;SDS011;7693;49.266;7.104;2023-04-28T02:10:32;5.50;;;5.20;;
15183;SDS011;7693;49.266;7.104;2023-04-28T02:12:57;5.97;;;5.50;;
15183;SDS011;7693;49.266;7.104;2023-04-28T02:15:23;5.40;;;5.03;;
15183;SDS011;7693;49.266;7.104;2023-04-28T02:17:48;6.13;;;5.63;;
15183;SDS011;7693;49.266;7.104;2023-04-28T02:20:14;5.47;;;5.13;;
15183;SDS011;7693;49.266;7.104;2023-04-28T02:22:42;7.30;;;6.20;;
15183;SDS011;7693;49.266;7.104;2023-04-28T02:25:08;5.80;;;5.30;;
15183;SDS011;7693;49.266;7.104;2023-04-28T02:27:34;5.73;;;5.23;;
15183;SDS011;7693;49.266;7.104;2023-04-28T02:30:06;6.23;;;5.63;;
15183;SDS011;7693;49.266;7.104;2023-04-28T02:32:32;6.33;;;5.73;;
15183;SDS011;7693;49.266;7.104;2023-04-28T02:34:57;5.83;;;5.33;;
15183;SDS011;7693;49.266;7.104;2023-04-28T02:37:23;6.53;;;5.93;;
15183;SDS011;7693;49.266;7.104;2023-04-28T02:39:49;6.60;;;5.90;;
15183;SDS011;7693;49.266;7.104;2023-04-28T02:42:15;6.13;;;5.47;;
15183;SDS011;7693;49.266;7.104;2023-04-28T02:44:40;6.23;;;5.73;;
15183;SDS011;7693;49.266;7.104;2023-04-28T02:47:06;7.13;;;5.90;;
15183;SDS011;7693;49.266;7.104;2023-04-28T02:49:32;6.10;;;5.60;;
15183;SDS011;7693;49.266;7.104;2023-04-28T02:51:57;6.90;;;6.30;;
15183;SDS011;7693;49.266;7.104;2023-04-28T02:54:23;6.90;;;6.13;;
15183;SDS011;7693;49.266;7.104;2023-04-28T02:56:55;6.70;;;6.27;;
15183;SDS011;7693;49.266;7.104;2023-04-28T02:59:22;10.00;;;6.57;;
15183;SDS011;7693;49.266;7.104;2023-04-28T03:01:48;6.23;;;5.73;;
15183;SDS011;7693;49.266;7.104;2023-04-28T03:04:14;8.13;;;5.90;;
15183;SDS011;7693;49.266;7.104;2023-04-28T03:06:40;7.90;;;6.10;;
15183;SDS011;7693;49.266;7.104;2023-04-28T03:09:06;7.27;;;6.37;;
15183;SDS011;7693;49.266;7.104;2023-04-28T03:11:32;6.37;;;5.97;;
15183;SDS011;7693;49.266;7.104;2023-04-28T03:13:57;5.93;;;5.37;;
15183;SDS011;7693;49.266;7.104;2023-04-28T03:16:23;6.20;;;5.80;;
15183;SDS011;7693;49.266;7.104;2023-04-28T03:18:49;6.30;;;5.90;;
15183;SDS011;7693;49.266;7.104;2023-04-28T03:21:14;6.30;;;5.80;;
15183;SDS011;7693;49.266;7.104;2023-04-28T03:23:40;6.70;;;6.10;;
15183;SDS011;7693;49.266;7.104;2023-04-28T03:26:05;7.27;;;6.67;;
15183;SDS011;7693;49.266;7.104;2023-04-28T03:28:31;7.57;;;6.83;;
15183;SDS011;7693;49.266;7.104;2023-04-28T03:30:57;6.27;;;5.87;;
15183;SDS011;7693;49.266;7.104;2023-04-28T03:33:22;6.53;;;5.83;;
15183;SDS011;7693;49.266;7.104;2023-04-28T03:35:48;6.67;;;6.20;;
15183;SDS011;7693;49.266;7.104;2023-04-28T03:38:13;6.73;;;6.13;;
15183;SDS011;7693;49.266;7.104;2023-04-28T03:40:39;6.80;;;6.20;;
15183;SDS011;7693;49.266;7.104;2023-04-28T03:43:05;6.73;;;6.10;;
15183;SDS011;7693;49.266;7.104;2023-04-28T03:45:31;6.90;;;6.40;;
15183;SDS011;7693;49.266;7.104;2023-04-28T03:47:57;6.77;;;6.20;;
15183;SDS011;7693;49.266;7.104;2023-04-28T03:50:22;7.13;;;6.63;;
15183;SDS011;7693;49.266;7.104;2023-04-28T03:52:48;9.77;;;6.53;;
15183;SDS011;7693;49.266;7.104;2023-04-28T03:55:13;9.00;;;6.80;;
15183;SDS011;7693;49.266;7.104;2023-04-28T03:57:39;7.87;;;6.30;;
15183;SDS011;7693;49.266;7.104;2023-04-28T04:00:05;7.30;;;6.60;;
15183;SDS011;7693;49.266;7.104;2023-04-28T04:02:31;6.80;;;6.10;;
15183;SDS011;7693;49.266;7.104;2023-04-28T04:04:57;6.93;;;6.43;;
15183;SDS011;7693;49.266;7.104;2023-04-28T04:07:22;8.70;;;6.50;;
15183;SDS011;7693;49.266;7.104;2023-04-28T04:09:48;7.13;;;6.57;;
15183;SDS011;7693;49.266;7.104;2023-04-28T04:12:14;8.80;;;7.90;;
15183;SDS011;7693;49.266;7.104;2023-04-28T04:14:39;7.87;;;7.17;;
15183;SDS011;7693;49.266;7.104;2023-04-28T04:17:05;7.20;;;6.50;;
15183;SDS011;7693;49.266;7.104;2023-04-28T04:19:31;7.27;;;6.57;;
15183;SDS011;7693;49.266;7.104;2023-04-28T04:22:00;8.63;;;7.73;;
15183;SDS011;7693;49.266;7.104;2023-04-28T04:24:25;8.93;;;6.77;;
15183;SDS011;7693;49.266;7.104;2023-04-28T04:26:51;8.47;;;7.67;;
15183;SDS011;7693;49.266;7.104;2023-04-28T04:29:16;10.73;;;8.67;;
15183;SDS011;7693;49.266;7.104;2023-04-28T04:31:42;9.73;;;7.73;;
15183;SDS011;7693;49.266;7.104;2023-04-28T04:34:09;10.17;;;7.87;;
15183;SDS011;7693;49.266;7.104;2023-04-28T04:36:35;12.20;;;11.23;;
15183;SDS011;7693;49.266;7.104;2023-04-28T04:39:01;10.87;;;9.97;;
15183;SDS011;7693;49.266;7.104;2023-04-28T04:41:26;14.70;;;13.30;;
15183;SDS011;7693;49.266;7.104;2023-04-28T04:43:52;18.40;;;16.43;;
15183;SDS011;7693;49.266;7.104;2023-04-28T04:46:18;13.77;;;12.47;;
15183;SDS011;7693;49.266;7.104;2023-04-28T04:48:43;11.37;;;10.33;;
15183;SDS011;7693;49.266;7.104;2023-04-28T04:51:09;13.37;;;11.33;;
15183;SDS011;7693;49.266;7.104;2023-04-28T04:53:35;11.53;;;10.43;;
15183;SDS011;7693;49.266;7.104;2023-04-28T04:56:01;11.23;;;10.23;;
15183;SDS011;7693;49.266;7.104;2023-04-28T04:58:26;10.13;;;7.80;;
15183;SDS011;7693;49.266;7.104;2023-04-28T05:00:52;17.53;;;15.07;;
15183;SDS011;7693;49.266;7.104;2023-04-28T05:03:18;32.87;;;26.93;;
15183;SDS011;7693;49.266;7.104;2023-04-28T05:05:43;21.20;;;18.97;;
15183;SDS011;7693;49.266;7.104;2023-04-28T05:08:10;26.50;;;21.17;;
15183;SDS011;7693;49.266;7.104;2023-04-28T05:10:36;12.13;;;10.90;;
15183;SDS011;7693;49.266;7.104;2023-04-28T05:13:01;10.67;;;9.80;;
15183;SDS011;7693;49.266;7.104;2023-04-28T05:15:27;8.10;;;5.93;;
15183;SDS011;7693;49.266;7.104;2023-04-28T05:17:53;10.23;;;7.13;;
15183;SDS011;7693;49.266;7.104;2023-04-28T05:20:19;6.43;;;5.80;;
15183;SDS011;7693;49.266;7.104;2023-04-28T05:22:44;5.73;;;5.40;;
15183;SDS011;7693;49.266;7.104;2023-04-28T05:25:10;17.47;;;13.60;;
15183;SDS011;7693;49.266;7.104;2023-04-28T05:27:36;8.10;;;6.90;;
15183;SDS011;7693;49.266;7.104;2023-04-28T05:30:03;7.50;;;7.00;;
15183;SDS011;7693;49.266;7.104;2023-04-28T05:32:32;7.40;;;6.70;;
15183;SDS011;7693;49.266;7.104;2023-04-28T05:34:58;13.30;;;12.10;;
15183;SDS011;7693;49.266;7.104;2023-04-28T05:37:24;10.43;;;9.03;;
15183;SDS011;7693;49.266;7.104;2023-04-28T05:39:50;12.03;;;10.83;;
15183;SDS011;7693;49.266;7.104;2023-04-28T05:42:15;15.70;;;14.10;;
15183;SDS011;7693;49.266;7.104;2023-04-28T05:44:41;16.47;;;14.23;;
15183;SDS011;7693;49.266;7.104;2023-04-28T05:47:07;14.80;;;13.30;;
15183;SDS011;7693;49.266;7.104;2023-04-28T05:49:32;18.33;;;16.57;;
15183;SDS011;7693;49.266;7.104;2023-04-28T05:51:58;13.57;;;12.40;;
15183;SDS011;7693;49.266;7.104;2023-04-28T05:54:23;12.27;;;11.07;;
15183;SDS011;7693;49.266;7.104;2023-04-28T05:56:49;10.73;;;9.77;;
15183;SDS011;7693;49.266;7.104;2023-04-28T05:59:15;9.83;;;9.03;;
15183;SDS011;7693;49.266;7.104;2023-04-28T06:01:41;11.33;;;10.43;;
15183;SDS011;7693;49.266;7.104;2023-04-28T06:04:06;11.43;;;10.53;;
15183;SDS011;7693;49.266;7.104;2023-04-28T06:06:32;10.30;;;9.27;;
15183;SDS011;7693;49.266;7.104;2023-04-28T06:08:58;8.10;;;7.40;;
15183;SDS011;7693;49.266;7.104;2023-04-28T06:11:24;11.50;;;10.40;;
15183;SDS011;7693;49.266;7.104;2023-04-28T06:13:50;8.77;;;7.97;;
15183;SDS011;7693;49.266;7.104;2023-04-28T06:16:15;10.53;;;9.73;;
15183;SDS011;7693;49.266;7.104;2023-04-28T06:18:42;10.20;;;9.40;;
15183;SDS011;7693;49.266;7.104;2023-04-28T06:21:08;9.53;;;8.73;;
15183;SDS011;7693;49.266;7.104;2023-04-28T06:23:33;7.47;;;6.97;;
15183;SDS011;7693;49.266;7.104;2023-04-28T06:26:00;8.13;;;7.50;;
15183;SDS011;7693;49.266;7.104;2023-04-28T06:28:25;8.00;;;7.30;;
15183;SDS011;7693;49.266;7.104;2023-04-28T06:30:51;8.53;;;7.73;;
15183;SDS011;7693;49.266;7.104;2023-04-28T06:33:17;7.63;;;7.03;;
15183;SDS011;7693;49.266;7.104;2023-04-28T06:35:42;6.83;;;6.23;;
15183;SDS011;7693;49.266;7.104;2023-04-28T06:38:08;6.90;;;6.30;;
15183;SDS011;7693;49.266;7.104;2023-04-28T06:40:33;7.80;;;7.03;;
15183;SDS011;7693;49.266;7.104;2023-04-28T06:42:59;9.20;;;6.83;;
15183;SDS011;7693;49.266;7.104;2023-04-28T06:45:25;6.43;;;5.73;;
15183;SDS011;7693;49.266;7.104;2023-04-28T06:47:51;6.30;;;5.80;;
15183;SDS011;7693;49.266;7.104;2023-04-28T06:50:19;6.63;;;6.00;;
15183;SDS011;7693;49.266;7.104;2023-04-28T06:52:45;7.10;;;6.40;;
15183;SDS011;7693;49.266;7.104;2023-04-28T06:55:13;6.37;;;5.77;;
15183;SDS011;7693;49.266;7.104;2023-04-28T06:57:40;6.17;;;5.70;;
15183;SDS011;7693;49.266;7.104;2023-04-28T07:00:06;5.43;;;5.23;;
15183;SDS011;7693;49.266;7.104;2023-04-28T07:02:32;6.20;;;5.80;;
15183;SDS011;7693;49.266;7.104;2023-04-28T07:04:59;4.90;;;4.70;;
15183;SDS011;7693;49.266;7.104;2023-04-28T07:07:24;4.97;;;4.70;;
15183;SDS011;7693;49.266;7.104;2023-04-28T07:09:50;5.50;;;4.60;;
15183;SDS011;7693;49.266;7.104;2023-04-28T07:12:17;4.83;;;4.53;;
15183;SDS011;7693;49.266;7.104;2023-04-28T07:14:43;5.13;;;4.83;;
15183;SDS011;7693;49.266;7.104;2023-04-28T07:17:08;4.57;;;4.17;;
15183;SDS011;7693;49.266;7.104;2023-04-28T07:19:34;4.40;;;4.10;;
15183;SDS011;7693;49.266;7.104;2023-04-28T07:22:00;4.53;;;4.27;;
15183;SDS011;7693;49.266;7.104;2023-04-28T07:24:26;4.10;;;3.70;;
15183;SDS011;7693;49.266;7.104;2023-04-28T07:26:52;3.63;;;3.40;;
15183;SDS011;7693;49.266;7.104;2023-04-28T07:29:18;3.20;;;3.10;;
15183;SDS011;7693;49.266;7.104;2023-04-28T07:31:44;3.90;;;3.80;;
15183;SDS011;7693;49.266;7.104;2023-04-28T07:34:10;3.10;;;2.90;;
15183;SDS011;7693;49.266;7.104;2023-04-28T07:36:35;2.83;;;2.73;;
15183;SDS011;7693;49.266;7.104;2023-04-28T07:39:01;3.30;;;2.87;;
15183;SDS011;7693;49.266;7.104;2023-04-28T07:41:27;2.57;;;2.50;;
15183;SDS011;7693;49.266;7.104;2023-04-28T07:43:53;2.90;;;2.80;;
15183;SDS011;7693;49.266;7.104;2023-04-28T07:46:18;2.53;;;2.42;;
15183;SDS011;7693;49.266;7.104;2023-04-28T07:48:44;2.73;;;2.57;;
15183;SDS011;7693;49.266;7.104;2023-04-28T07:51:09;2.47;;;2.30;;
15183;SDS011;7693;49.266;7.104;2023-04-28T07:53:36;2.17;;;2.17;;
15183;SDS011;7693;49.266;7.104;2023-04-28T07:56:01;2.40;;;2.30;;
15183;SDS011;7693;49.266;7.104;2023-04-28T07:58:27;2.40;;;2.30;;
15183;SDS011;7693;49.266;7.104;2023-04-28T08:00:53;2.30;;;2.20;;
15183;SDS011;7693;49.266;7.104;2023-04-28T08:03:18;2.22;;;2.13;;
15183;SDS011;7693;49.266;7.104;2023-04-28T08:05:44;5.05;;;4.68;;
15183;SDS011;7693;49.266;7.104;2023-04-28T08:08:09;4.73;;;3.17;;
15183;SDS011;7693;49.266;7.104;2023-04-28T08:10:35;3.33;;;3.00;;
15183;SDS011;7693;49.266;7.104;2023-04-28T08:13:02;1.90;;;1.80;;
15183;SDS011;7693;49.266;7.104;2023-04-28T08:15:27;1.60;;;1.60;;
15183;SDS011;7693;49.266;7.104;2023-04-28T08:17:53;1.70;;;1.70;;
15183;SDS011;7693;49.266;7.104;2023-04-28T08:20:19;1.88;;;1.77;;
15183;SDS011;7693;49.266;7.104;2023-04-28T08:22:45;1.95;;;1.85;;
15183;SDS011;7693;49.266;7.104;2023-04-28T08:25:11;1.60;;;1.60;;
15183;SDS011;7693;49.266;7.104;2023-04-28T08:27:36;1.60;;;1.60;;
15183;SDS011;7693;49.266;7.104;2023-04-28T08:30:04;2.53;;;1.80;;
15183;SDS011;7693;49.266;7.104;2023-04-28T08:32:33;1.38;;;1.38;;
15183;SDS011;7693;49.266;7.104;2023-04-28T08:34:59;1.75;;;1.55;;
15183;SDS011;7693;49.266;7.104;2023-04-28T08:37:25;3.72;;;1.70;;
15183;SDS011;7693;49.266;7.104;2023-04-28T08:39:51;1.33;;;1.33;;
15183;SDS011;7693;49.266;7.104;2023-04-28T08:42:27;1.52;;;1.42;;
15183;SDS011;7693;49.266;7.104;2023-04-28T08:44:53;1.80;;;1.80;;
15183;SDS011;7693;49.266;7.104;2023-04-28T08:47:23;2.05;;;1.65;;
15183;SDS011;7693;49.266;7.104;2023-04-28T08:50:02;1.70;;;1.70;;
15183;SDS011;7693;49.266;7.104;2023-04-28T08:52:30;1.40;;;1.40;;
15183;SDS011;7693;49.266;7.104;2023-04-28T08:54:57;2.72;;;2.58;;
15183;SDS011;7693;49.266;7.104;2023-04-28T08:57:25;1.58;;;1.52;;
15183;SDS011;7693;49.266;7.104;2023-04-28T08:59:54;2.95;;;2.78;;
15183;SDS011;7693;49.266;7.104;2023-04-28T09:02:20;1.60;;;1.50;;
15183;SDS011;7693;49.266;7.104;2023-04-28T09:04:46;2.88;;;2.50;;
15183;SDS011;7693;49.266;7.104;2023-04-28T09:07:12;2.78;;;2.58;;
15183;SDS011;7693;49.266;7.104;2023-04-28T09:09:38;1.60;;;1.60;;
15183;SDS011;7693;49.266;7.104;2023-04-28T09:12:05;2.45;;;2.35;;
15183;SDS011;7693;49.266;7.104;2023-04-28T09:14:32;2.03;;;1.92;;
15183;SDS011;7693;49.266;7.104;2023-04-28T09:17:00;2.05;;;1.95;;
15183;SDS011;7693;49.266;7.104;2023-04-28T09:19:33;1.55;;;1.45;;
15183;SDS011;7693;49.266;7.104;2023-04-28T09:22:02;1.48;;;1.05;;
15183;SDS011;7693;49.266;7.104;2023-04-28T09:24:36;1.30;;;1.20;;
15183;SDS011;7693;49.266;7.104;2023-04-28T09:27:09;1.20;;;1.20;;
15183;SDS011;7693;49.266;7.104;2023-04-28T09:29:36;2.00;;;1.90;;
15183;SDS011;7693;49.266;7.104;2023-04-28T09:32:13;1.17;;;1.17;;
15183;SDS011;7693;49.266;7.104;2023-04-28T09:39:54;2.10;;;1.65;;
15183;SDS011;7693;49.266;7.104;2023-04-28T09:45:00;1.40;;;1.30;;
15183;SDS011;7693;49.266;7.104;2023-04-28T09:47:27;1.10;;;1.10;;
15183;SDS011;7693;49.266;7.104;2023-04-28T09:49:56;1.80;;;1.38;;
15183;SDS011;7693;49.266;7.104;2023-04-28T09:52:24;1.70;;;1.70;;
15183;SDS011;7693;49.266;7.104;2023-04-28T09:54:51;1.30;;;1.30;;
15183;SDS011;7693;49.266;7.104;2023-04-28T09:57:18;1.50;;;1.50;;
15183;SDS011;7693;49.266;7.104;2023-04-28T09:59:49;2.25;;;1.40;;
15183;SDS011;7693;49.266;7.104;2023-04-28T10:02:17;1.70;;;1.70;;
15183;SDS011;7693;49.266;7.104;2023-04-28T10:04:45;1.23;;;1.23;;
15183;SDS011;7693;49.266;7.104;2023-04-28T10:07:13;1.30;;;1.30;;
15183;SDS011;7693;49.266;7.104;2023-04-28T10:09:40;2.40;;;1.33;;
15183;SDS011;7693;49.266;7.104;2023-04-28T10:12:12;2.22;;;2.13;;
15183;SDS011;7693;49.266;7.104;2023-04-28T10:14:38;1.10;;;1.10;;
15183;SDS011;7693;49.266;7.104;2023-04-28T10:17:05;6.95;;;6.55;;
15183;SDS011;7693;49.266;7.104;2023-04-28T10:19:31;1.60;;;1.50;;
15183;SDS011;7693;49.266;7.104;2023-04-28T10:22:08;3.10;;;3.00;;
15183;SDS011;7693;49.266;7.104;2023-04-28T10:25:07;2.42;;;1.95;;
15183;SDS011;7693;49.266;7.104;2023-04-28T10:27:43;1.30;;;1.20;;
15183;SDS011;7693;49.266;7.104;2023-04-28T10:30:13;2.42;;;1.40;;
15183;SDS011;7693;49.266;7.104;2023-04-28T10:32:41;1.30;;;1.20;;
15183;SDS011;7693;49.266;7.104;2023-04-28T10:42:57;1.20;;;1.20;;
15183;SDS011;7693;49.266;7.104;2023-04-28T10:48:13;3.75;;;1.75;;
15183;SDS011;7693;49.266;7.104;2023-04-28T10:56:12;1.08;;;1.08;;
15183;SDS011;7693;49.266;7.104;2023-04-28T10:58:39;1.60;;;1.50;;
15183;SDS011;7693;49.266;7.104;2023-04-28T11:06:35;1.15;;;1.15;;
15183;SDS011;7693;49.266;7.104;2023-04-28T11:11:36;1.67;;;1.58;;
15183;SDS011;7693;49.266;7.104;2023-04-28T11:19:17;3.85;;;2.20;;
15183;SDS011;7693;49.266;7.104;2023-04-28T11:21:44;2.03;;;1.65;;
15183;SDS011;7693;49.266;7.104;2023-04-28T11:24:12;1.63;;;1.50;;
15183;SDS011;7693;49.266;7.104;2023-04-28T11:26:41;1.20;;;1.20;;
15183;SDS011;7693;49.266;7.104;2023-04-28T11:29:08;2.58;;;2.00;;
15183;SDS011;7693;49.266;7.104;2023-04-28T11:31:35;1.83;;;1.48;;
15183;SDS011;7693;49.266;7.104;2023-04-28T11:34:04;5.28;;;1.52;;
15183;SDS011;7693;49.266;7.104;2023-04-28T11:36:35;1.67;;;1.58;;
15183;SDS011;7693;49.266;7.104;2023-04-28T11:39:02;1.33;;;1.30;;
15183;SDS011;7693;49.266;7.104;2023-04-28T11:41:44;1.92;;;1.50;;
15183;SDS011;7693;49.266;7.104;2023-04-28T11:44:13;1.40;;;1.27;;
15183;SDS011;7693;49.266;7.104;2023-04-28T11:46:47;1.58;;;1.15;;
15183;SDS011;7693;49.266;7.104;2023-04-28T11:49:24;1.50;;;1.40;;
15183;SDS011;7693;49.266;7.104;2023-04-28T11:51:54;1.33;;;1.20;;
15183;SDS011;7693;49.266;7.104;2023-04-28T11:54:21;3.45;;;1.50;;
15183;SDS011;7693;49.266;7.104;2023-04-28T11:56:52;1.20;;;1.10;;
15183;SDS011;7693;49.266;7.104;2023-04-28T11:59:26;1.30;;;1.30;;
15183;SDS011;7693;49.266;7.104;2023-04-28T12:01:54;1.73;;;1.40;;
15183;SDS011;7693;49.266;7.104;2023-04-28T12:04:30;2.22;;;1.10;;
15183;SDS011;7693;49.266;7.104;2023-04-28T12:07:13;1.25;;;1.20;;
15183;SDS011;7693;49.266;7.104;2023-04-28T12:09:43;1.30;;;1.20;;
15183;SDS011;7693;49.266;7.104;2023-04-28T12:12:11;3.72;;;1.35;;
15183;SDS011;7693;49.266;7.104;2023-04-28T12:14:57;2.53;;;1.40;;
15183;SDS011;7693;49.266;7.104;2023-04-28T12:17:30;3.30;;;1.30;;
15183;SDS011;7693;49.266;7.104;2023-04-28T12:20:02;1.48;;;1.38;;
15183;SDS011;7693;49.266;7.104;2023-04-28T12:22:29;3.05;;;1.35;;
15183;SDS011;7693;49.266;7.104;2023-04-28T12:25:05;1.17;;;1.17;;
15183;SDS011;7693;49.266;7.104;2023-04-28T12:27:31;1.13;;;1.08;;
15183;SDS011;7693;49.266;7.104;2023-04-28T12:29:57;1.52;;;1.17;;
15183;SDS011;7693;49.266;7.104;2023-04-28T12:32:39;2.17;;;1.00;;
15183;SDS011;7693;49.266;7.104;2023-04-28T12:35:06;2.05;;;1.30;;
15183;SDS011;7693;49.266;7.104;2023-04-28T12:37:32;1.40;;;1.23;;
15183;SDS011;7693;49.266;7.104;2023-04-28T12:39:58;1.08;;;1.08;;
15183;SDS011;7693;49.266;7.104;2023-04-28T12:42:24;1.20;;;1.10;;
15183;SDS011;7693;49.266;7.104;2023-04-28T12:44:49;1.10;;;1.10;;
15183;SDS011;7693;49.266;7.104;2023-04-28T12:47:15;1.20;;;1.20;;
15183;SDS011;7693;49.266;7.104;2023-04-28T12:49:44;1.25;;;1.00;;
15183;SDS011;7693;49.266;7.104;2023-04-28T12:52:10;1.10;;;1.10;;
15183;SDS011;7693;49.266;7.104;2023-04-28T12:54:36;2.28;;;1.10;;
15183;SDS011;7693;49.266;7.104;2023-04-28T12:57:03;1.02;;;1.02;;
15183;SDS011;7693;49.266;7.104;2023-04-28T12:59:29;3.50;;;1.30;;
15183;SDS011;7693;49.266;7.104;2023-04-28T13:01:55;2.17;;;1.10;;
15183;SDS011;7693;49.266;7.104;2023-04-28T13:04:21;1.02;;;1.00;;
15183;SDS011;7693;49.266;7.104;2023-04-28T13:06:46;1.25;;;0.95;;
15183;SDS011;7693;49.266;7.104;2023-04-28T13:09:13;1.10;;;1.00;;
15183;SDS011;7693;49.266;7.104;2023-04-28T13:11:39;0.90;;;0.90;;
15183;SDS011;7693;49.266;7.104;2023-04-28T13:14:05;1.90;;;1.20;;
15183;SDS011;7693;49.266;7.104;2023-04-28T13:16:31;0.90;;;0.90;;
15183;SDS011;7693;49.266;7.104;2023-04-28T13:18:58;1.02;;;1.00;;
15183;SDS011;7693;49.266;7.104;2023-04-28T13:21:24;1.40;;;1.25;;
15183;SDS011;7693;49.266;7.104;2023-04-28T13:23:51;2.75;;;0.90;;
15183;SDS011;7693;49.266;7.104;2023-04-28T13:26:17;1.27;;;1.02;;
15183;SDS011;7693;49.266;7.104;2023-04-28T13:28:44;1.75;;;0.85;;
15183;SDS011;7693;49.266;7.104;2023-04-28T13:31:11;1.13;;;1.00;;
15183;SDS011;7693;49.266;7.104;2023-04-28T13:33:37;0.90;;;0.90;;
15183;SDS011;7693;49.266;7.104;2023-04-28T13:36:03;1.75;;;0.80;;
15183;SDS011;7693;49.266;7.104;2023-04-28T13:38:29;0.70;;;0.70;;
15183;SDS011;7693;49.266;7.104;2023-04-28T13:40:55;1.10;;;0.90;;
15183;SDS011;7693;49.266;7.104;2023-04-28T13:43:20;1.90;;;1.05;;
15183;SDS011;7693;49.266;7.104;2023-04-28T13:45:46;2.28;;;1.02;;
15183;SDS011;7693;49.266;7.104;2023-04-28T13:48:12;1.90;;;1.55;;
15183;SDS011;7693;49.266;7.104;2023-04-28T13:50:37;1.00;;;0.80;;
15183;SDS011;7693;49.266;7.104;2023-04-28T13:53:03;1.50;;;0.80;;
15183;SDS011;7693;49.266;7.104;2023-04-28T13:55:28;1.95;;;1.02;;
15183;SDS011;7693;49.266;7.104;2023-04-28T13:57:54;0.90;;;0.85;;
15183;SDS011;7693;49.266;7.104;2023-04-28T14:00:20;0.82;;;0.82;;
15183;SDS011;7693;49.266;7.104;2023-04-28T14:02:48;1.13;;;1.02;;
15183;SDS011;7693;49.266;7.104;2023-04-28T14:05:15;1.10;;;0.90;;
15183;SDS011;7693;49.266;7.104;2023-04-28T14:07:41;0.77;;;0.77;;
15183;SDS011;7693;49.266;7.104;2023-04-28T14:10:07;5.88;;;1.75;;
15183;SDS011;7693;49.266;7.104;2023-04-28T14:12:33;3.65;;;1.30;;
15183;SDS011;7693;49.266;7.104;2023-04-28T14:14:58;0.70;;;0.70;;
15183;SDS011;7693;49.266;7.104;2023-04-28T14:17:24;2.40;;;0.80;;
15183;SDS011;7693;49.266;7.104;2023-04-28T14:19:50;2.40;;;0.90;;
15183;SDS011;7693;49.266;7.104;2023-04-28T14:22:18;1.60;;;1.05;;
15183;SDS011;7693;49.266;7.104;2023-04-28T14:24:48;1.88;;;0.80;;
15183;SDS011;7693;49.266;7.104;2023-04-28T14:27:13;1.80;;;1.15;;
15183;SDS011;7693;49.266;7.104;2023-04-28T14:29:39;1.92;;;1.10;;
15183;SDS011;7693;49.266;7.104;2023-04-28T14:32:06;1.27;;;1.17;;
15183;SDS011;7693;49.266;7.104;2023-04-28T14:34:34;2.60;;;1.50;;
15183;SDS011;7693;49.266;7.104;2023-04-28T14:37:00;2.45;;;1.33;;
15183;SDS011;7693;49.266;7.104;2023-04-28T14:39:25;2.08;;;1.20;;
15183;SDS011;7693;49.266;7.104;2023-04-28T14:41:51;1.05;;;1.00;;
15183;SDS011;7693;49.266;7.104;2023-04-28T14:44:17;2.10;;;1.27;;
15183;SDS011;7693;49.266;7.104;2023-04-28T14:46:42;1.63;;;1.20;;
15183;SDS011;7693;49.266;7.104;2023-04-28T14:49:08;1.20;;;1.10;;
15183;SDS011;7693;49.266;7.104;2023-04-28T14:51:33;1.67;;;1.10;;
15183;SDS011;7693;49.266;7.104;2023-04-28T14:53:59;2.80;;;1.20;;
15183;SDS011;7693;49.266;7.104;2023-04-28T14:56:25;1.35;;;1.10;;
15183;SDS011;7693;49.266;7.104;2023-04-28T14:58:50;1.85;;;1.00;;
15183;SDS011;7693;49.266;7.104;2023-04-28T15:01:16;3.60;;;0.80;;
15183;SDS011;7693;49.266;7.104;2023-04-28T15:03:43;4.18;;;1.08;;
15183;SDS011;7693;49.266;7.104;2023-04-28T15:06:09;2.20;;;0.80;;
15183;SDS011;7693;49.266;7.104;2023-04-28T15:08:35;1.20;;;0.73;;
15183;SDS011;7693;49.266;7.104;2023-04-28T15:11:01;0.88;;;0.77;;
15183;SDS011;7693;49.266;7.104;2023-04-28T15:13:27;1.40;;;0.80;;
15183;SDS011;7693;49.266;7.104;2023-04-28T15:15:56;2.83;;;0.90;;
15183;SDS011;7693;49.266;7.104;2023-04-28T15:18:25;1.20;;;1.00;;
15183;SDS011;7693;49.266;7.104;2023-04-28T15:20:50;0.85;;;0.77;;
15183;SDS011;7693;49.266;7.104;2023-04-28T15:23:16;1.80;;;0.98;;
15183;SDS011;7693;49.266;7.104;2023-04-28T15:25:43;2.70;;;0.90;;
15183;SDS011;7693;49.266;7.104;2023-04-28T15:28:09;0.88;;;0.88;;
15183;SDS011;7693;49.266;7.104;2023-04-28T15:30:34;1.33;;;0.80;;
15183;SDS011;7693;49.266;7.104;2023-04-28T15:33:00;1.13;;;1.08;;